Terminal Aerodrome Forecast
Issued by NWS

Home | Current Version | Previous Version | Text Only | Print | Product List | Glossary On
Versions: 1 2 3 4 5 6 7 8 9 10 11 12 13
000
FTUS46 KMTR 231100
TAFSJC
TAF
KSJC 231120Z 2312/2412 29004KT P6SM FEW200
     FM231800 31008KT P6SM SCT200
     FM232100 30015G20KT P6SM SCT200
     FM240300 30009KT P6SM SCT200
     FM240800 VRB03KT P6SM BKN025=

USA.gov is the U.S. government's official web portal to all federal, state and local government web resources and services.